Airfield :
LOGIN :

Register | Disclaimer

   EN    FR    IT 

 










Legend :    VFR   Marginal VFR   IFR   Intensive IFR   Very Intensive IFR
Visi :
Ceiling :
>= 8 km
>= 3000ft
5 to 8 km
1000 to 3000 ft
1500m to 5 km
500 to 1000 ft
800 to 1500m
200 to 500 ft
< 800m
< 200 ft
Symbols :   Thunderstorms  Fog  Heavy snow  Heavy precipitations  Wind > 20 kt
SIGMETs :     Misc.  Thunderstorms  Icing  Turbulence  Mountain Waves  Volcanic Ashes







- Airport Elevation : 1682 ft
- IATA code : VIT


LEVT - Vitoria Gasteiz

CURRENT METAR :
  • 190230Z 08001KT 6000 SCT017 12/12 Q1020

EXPIRED METARs :
  • 190200Z VRB01KT 6000 SCT017 13/13 Q1020
  • 190130Z VRB01KT 5000 BR SCT017 14/13 Q1020
  • 190100Z 00000KT 5000 BR SCT017 14/14 Q1020
  • 190030Z 04002KT 5000 BR SCT017 14/14 Q1020
  • 190000Z VRB02KT 5000 BR SCT015 14/14 Q1020

TAF TAF LEVT
Valid from the 19 at 00:00 until the 20 at 00:00 UTC


182300Z 1900/1924 VRB05KT 9999 SCT025 TX26/1914Z TN11/1906Z
TEMPO 1900/1908 3000 BR
TEMPO 1900/1908 0350 FG VV001
BECMG 1910/1912 02010KT
PROB40
TEMPO 1912/1918 SHRA SCT030TCU
No reported NOTAMs for that airfield.



MET'MAP, your aeronautical weather chart ! - Copyright ORBIFLY December 2007 - Disclaimer

ORBIFLY MET'MAP TEAM :

Programming & Development : Alexandra Zaïnal
Concept & Development : Baudouin d'Aumeries
Co-Development & Prog : Marc-Olivier Méhu
Technical & hardware support : Manuel Goepfert

Contact : metmap@orbifly.com




SOURCES & CREDITS :

   NOAA